createdAt,value
2023-12-11T00:02:01.502Z,98150.28
2023-12-11T00:04:33.809Z,98147.19
2023-12-11T00:07:05.776Z,98128.00
2023-12-11T00:09:42.060Z,98135.06
2023-12-11T00:12:13.980Z,98139.81
2023-12-11T00:14:45.862Z,98119.47
2023-12-11T00:17:17.793Z,98113.41
2023-12-11T00:19:49.611Z,98105.81
2023-12-11T00:22:21.398Z,98094.19
2023-12-11T00:24:53.305Z,98090.38
2023-12-11T00:27:25.176Z,98078.22
2023-12-11T00:29:56.991Z,98096.81
2023-12-11T00:32:31.196Z,98102.22
2023-12-11T00:35:03.223Z,98093.97
2023-12-11T00:37:35.131Z,98094.63
2023-12-11T00:40:09.297Z,98099.88
2023-12-11T00:42:41.246Z,98112.00
2023-12-11T00:45:16.640Z,98119.25
2023-12-11T00:47:48.461Z,98123.50
2023-12-11T00:50:20.450Z,98109.22
2023-12-11T00:52:55.271Z,98115.09
2023-12-11T00:55:29.344Z,98115.75
2023-12-11T00:58:01.396Z,98103.28
2023-12-11T01:00:33.311Z,98092.94
2023-12-11T01:03:05.336Z,98104.09
2023-12-11T01:05:37.845Z,98104.91
2023-12-11T01:08:09.976Z,98102.63
2023-12-11T01:10:41.818Z,98094.91
2023-12-11T01:13:13.673Z,98093.09
2023-12-11T01:15:46.599Z,98087.69
2023-12-11T01:18:18.782Z,98089.88
2023-12-11T01:20:52.155Z,98082.78
2023-12-11T01:23:23.944Z,98082.16
2023-12-11T01:25:55.696Z,98076.75
2023-12-11T01:28:27.522Z,98084.41
2023-12-11T01:30:59.395Z,98097.03
2023-12-11T01:33:31.515Z,98101.75
2023-12-11T01:36:03.696Z,98098.91
2023-12-11T01:38:35.797Z,98097.59
2023-12-11T01:41:07.700Z,98097.44
2023-12-11T01:43:39.772Z,98095.09
2023-12-11T01:46:15.237Z,98102.41
2023-12-11T01:48:50.179Z,98105.50
2023-12-11T01:51:21.956Z,98093.34
2023-12-11T01:53:53.898Z,98077.25
2023-12-11T01:56:26.347Z,98089.84
2023-12-11T01:58:58.450Z,98102.44
2023-12-11T02:01:31.614Z,98098.47
2023-12-11T02:04:03.854Z,98106.97
2023-12-11T02:06:36.041Z,98099.56
2023-12-11T02:09:07.889Z,98087.16
2023-12-11T02:11:39.736Z,98084.34
2023-12-11T02:14:11.535Z,98083.53
2023-12-11T02:16:43.308Z,98075.81
2023-12-11T02:19:15.282Z,98060.41
2023-12-11T02:21:47.581Z,98069.31
2023-12-11T02:24:24.349Z,98056.97
2023-12-11T02:26:56.139Z,98055.81
2023-12-11T02:29:27.985Z,98042.50
2023-12-11T02:31:59.855Z,98035.44
2023-12-11T02:34:31.790Z,98022.81
2023-12-11T02:37:03.739Z,98011.69
2023-12-11T02:39:35.550Z,98004.53
2023-12-11T02:42:07.384Z,98001.91
2023-12-11T02:44:39.164Z,98002.91
2023-12-11T02:47:11.004Z,98000.44
2023-12-11T02:49:42.816Z,97993.78
2023-12-11T02:52:14.663Z,97984.91
2023-12-11T02:54:46.535Z,97964.69
2023-12-11T02:57:18.449Z,97963.59
2023-12-11T02:59:50.236Z,97950.84
2023-12-11T03:02:22.118Z,97960.91
2023-12-11T03:04:53.981Z,97980.28
2023-12-11T03:07:26.961Z,97979.78
2023-12-11T03:09:58.833Z,98001.16
2023-12-11T03:12:30.622Z,98009.28
2023-12-11T03:15:04.407Z,98004.84
2023-12-11T03:17:39.756Z,98000.63
2023-12-11T03:20:13.012Z,97990.19
2023-12-11T03:22:45.437Z,97987.91
2023-12-11T03:25:17.318Z,97985.81
2023-12-11T03:27:49.168Z,97993.88
2023-12-11T03:30:21.039Z,98006.97
2023-12-11T03:32:52.929Z,97985.81
2023-12-11T03:35:25.583Z,97992.38
2023-12-11T03:37:57.383Z,97986.47
2023-12-11T03:40:29.226Z,97992.72
2023-12-11T03:43:01.703Z,97995.34
2023-12-11T03:45:33.678Z,98000.56
2023-12-11T03:48:05.844Z,98023.38
2023-12-11T03:50:37.775Z,98019.75
2023-12-11T03:53:11.506Z,98016.50
2023-12-11T03:55:43.385Z,98019.13
2023-12-11T03:58:15.242Z,98019.47
2023-12-11T04:00:47.202Z,98026.72
2023-12-11T04:03:19.075Z,98026.06
2023-12-11T04:05:50.988Z,98025.06
2023-12-11T04:08:22.792Z,98028.06
2023-12-11T04:10:54.573Z,98031.50
2023-12-11T04:13:26.341Z,98042.34
2023-12-11T04:15:58.239Z,98041.34
2023-12-11T04:18:30.466Z,98039.19
2023-12-11T04:21:02.472Z,98032.31
2023-12-11T04:23:34.799Z,98046.44
2023-12-11T04:26:06.703Z,98044.63
2023-12-11T04:28:38.474Z,98049.38
2023-12-11T04:31:13.168Z,98057.25
2023-12-11T04:33:45.105Z,98070.38
2023-12-11T04:36:16.985Z,98059.88
2023-12-11T04:38:48.858Z,98068.56
2023-12-11T04:41:20.761Z,98065.78
2023-12-11T04:43:52.813Z,98067.88
2023-12-11T04:46:24.628Z,98066.59
2023-12-11T04:48:57.788Z,98061.69
2023-12-11T04:51:29.656Z,98064.97
2023-12-11T04:54:01.524Z,98057.75
2023-12-11T04:56:33.385Z,98067.88
2023-12-11T04:59:05.245Z,98056.38
2023-12-11T05:01:37.234Z,98054.75
2023-12-11T05:04:09.126Z,98059.19
2023-12-11T05:06:41.042Z,98064.44
2023-12-11T05:09:12.922Z,98061.63
2023-12-11T05:11:45.841Z,98055.72
2023-12-11T05:14:17.705Z,98058.56
2023-12-11T05:16:49.499Z,98058.34
2023-12-11T05:19:21.481Z,98055.41
2023-12-11T05:21:56.719Z,98059.47
2023-12-11T05:24:28.843Z,98060.47
2023-12-11T05:27:00.651Z,98066.34
2023-12-11T05:29:32.432Z,98055.03
2023-12-11T05:32:04.659Z,98063.09
2023-12-11T05:34:36.482Z,98067.53
2023-12-11T05:37:11.286Z,98059.19
2023-12-11T05:39:50.416Z,98053.13
2023-12-11T05:42:29.309Z,98059.19
2023-12-11T05:45:03.645Z,98062.09
2023-12-11T05:47:35.486Z,98052.78
2023-12-11T05:50:07.624Z,98055.41
2023-12-11T05:52:39.436Z,98054.59
2023-12-11T05:55:11.451Z,98056.38
2023-12-11T05:57:44.976Z,98049.34
2023-12-11T06:00:17.939Z,98057.22
2023-12-11T06:02:49.844Z,98051.97
2023-12-11T06:05:22.032Z,98050.97
2023-12-11T06:07:53.894Z,98046.00
2023-12-11T06:10:25.779Z,98043.38
2023-12-11T06:12:57.709Z,98043.38
2023-12-11T06:15:30.535Z,98046.66
2023-12-11T06:18:02.573Z,98051.91
2023-12-11T06:20:34.508Z,98057.78
2023-12-11T06:23:09.285Z,98049.56
2023-12-11T06:25:41.037Z,98044.13
2023-12-11T06:28:12.846Z,98047.94
2023-12-11T06:30:44.828Z,98048.75
2023-12-11T06:33:17.687Z,98045.31
2023-12-11T06:35:52.947Z,98040.22
2023-12-11T06:38:24.724Z,98039.41
2023-12-11T06:40:56.594Z,98036.97
2023-12-11T06:43:28.510Z,98055.84
2023-12-11T06:46:00.337Z,98062.09
2023-12-11T06:48:32.380Z,98067.53
2023-12-11T06:51:04.482Z,98069.97
2023-12-11T06:53:36.947Z,98068.34
2023-12-11T06:56:09.332Z,98071.59
2023-12-11T06:58:41.131Z,98075.03
2023-12-11T07:01:17.168Z,98080.13
2023-12-11T07:03:50.227Z,98086.63
2023-12-11T07:06:27.944Z,98081.41
2023-12-11T07:09:01.097Z,98092.16
2023-12-11T07:11:33.260Z,98097.91
2023-12-11T07:14:05.183Z,98100.66
2023-12-11T07:16:37.285Z,98087.44
2023-12-11T07:19:09.664Z,98092.97
2023-12-11T07:21:47.492Z,98090.09
2023-12-11T07:24:19.343Z,98093.44
2023-12-11T07:26:53.339Z,98082.03
2023-12-11T07:29:25.151Z,98088.63
2023-12-11T07:31:56.975Z,98079.06
2023-12-11T07:34:29.087Z,98073.22
2023-12-11T07:37:01.263Z,98073.69
2023-12-11T07:39:33.139Z,98071.28
2023-12-11T07:42:05.321Z,98081.19
2023-12-11T07:44:37.668Z,98071.94
2023-12-11T07:47:09.641Z,98070.78
2023-12-11T07:49:47.504Z,98068.34
2023-12-11T07:52:19.763Z,98067.56
2023-12-11T07:54:51.687Z,98070.59
2023-12-11T07:57:26.334Z,98077.59
2023-12-11T08:00:02.457Z,98066.72
2023-12-11T08:02:39.362Z,98071.09
2023-12-11T08:05:11.710Z,98068.94
2023-12-11T08:07:46.817Z,98056.00
2023-12-11T08:10:19.142Z,98061.69
2023-12-11T08:12:55.031Z,98059.84
2023-12-11T08:15:29.023Z,98046.69
2023-12-11T08:18:00.916Z,98047.34
2023-12-11T08:20:32.771Z,98053.22
2023-12-11T08:23:04.709Z,98046.59
2023-12-11T08:25:37.072Z,98035.44
2023-12-11T08:28:11.687Z,98018.19
2023-12-11T08:30:43.542Z,98024.66
2023-12-11T08:33:15.566Z,98029.16
2023-12-11T08:35:48.645Z,98024.56
2023-12-11T08:38:26.950Z,98027.06
2023-12-11T08:40:58.760Z,98022.91
2023-12-11T08:43:31.664Z,98026.84
2023-12-11T08:46:04.876Z,98019.59
2023-12-11T08:48:39.781Z,98021.66
2023-12-11T08:51:12.174Z,98022.72
2023-12-11T08:53:45.970Z,98021.22
2023-12-11T08:56:20.823Z,98029.03
2023-12-11T08:58:52.800Z,98030.03
2023-12-11T09:01:24.700Z,98032.53
2023-12-11T09:03:56.651Z,98031.06
2023-12-11T09:06:28.555Z,98032.84
2023-12-11T09:09:00.464Z,98031.00
2023-12-11T09:11:33.720Z,98033.69
2023-12-11T09:14:05.544Z,98036.34
2023-12-11T09:16:37.332Z,98022.00
2023-12-11T09:19:09.979Z,98002.34
2023-12-11T09:21:42.466Z,98010.03
2023-12-11T09:24:17.316Z,98002.72
2023-12-11T09:26:49.230Z,97997.09
2023-12-11T09:29:21.182Z,97982.19
2023-12-11T09:31:52.969Z,97976.47
2023-12-11T09:34:24.958Z,97972.56
2023-12-11T09:36:57.626Z,97971.25
2023-12-11T09:39:29.558Z,97968.63
2023-12-11T09:42:02.973Z,97963.59
2023-12-11T09:44:36.346Z,97960.44
2023-12-11T09:47:19.844Z,97965.59
2023-12-11T09:49:55.165Z,97963.94
2023-12-11T09:52:32.692Z,97956.53
2023-12-11T09:55:06.400Z,97949.00
2023-12-11T09:57:40.901Z,97952.81
2023-12-11T10:00:17.350Z,97941.63
2023-12-11T10:02:54.453Z,97947.84
2023-12-11T10:05:30.119Z,97945.03
2023-12-11T10:08:02.387Z,97944.75
2023-12-11T10:10:39.592Z,97948.50
2023-12-11T10:13:23.818Z,97943.31
2023-12-11T10:15:56.820Z,97953.28
2023-12-11T10:18:28.766Z,97947.56
2023-12-11T10:21:01.076Z,97945.72
2023-12-11T10:23:34.398Z,97939.00
2023-12-11T10:26:07.458Z,97942.06
2023-12-11T10:28:39.327Z,97940.53
2023-12-11T10:31:11.443Z,97941.66
2023-12-11T10:33:52.193Z,97932.75
2023-12-11T10:36:24.136Z,97935.19
2023-12-11T10:39:09.374Z,97926.69
2023-12-11T10:41:47.136Z,97925.44
2023-12-11T10:44:39.927Z,97923.72
2023-12-11T10:47:19.551Z,97943.16
2023-12-11T10:49:51.627Z,97921.41
2023-12-11T10:52:23.547Z,97917.72
2023-12-11T10:54:57.352Z,97925.91
2023-12-11T10:57:33.481Z,97929.47
2023-12-11T11:00:06.345Z,97909.09
2023-12-11T11:02:38.739Z,97906.50
2023-12-11T11:05:13.100Z,97916.03
2023-12-11T11:08:03.703Z,97896.28
2023-12-11T11:11:06.299Z,97892.38
2023-12-11T11:14:05.906Z,97893.63
2023-12-11T11:16:54.242Z,97895.94
2023-12-11T11:19:28.647Z,97901.22
2023-12-11T11:22:05.218Z,97914.09
2023-12-11T11:24:40.209Z,97903.69
2023-12-11T11:27:42.555Z,97898.66
2023-12-11T11:30:44.028Z,97899.75
2023-12-11T11:33:16.277Z,97903.31
2023-12-11T11:35:55.191Z,97901.53
2023-12-11T11:38:58.883Z,97895.06
2023-12-11T11:41:31.367Z,97893.63
2023-12-11T11:44:08.353Z,97879.78
2023-12-11T11:46:53.653Z,97879.00
2023-12-11T11:49:35.540Z,97876.63
2023-12-11T11:52:11.415Z,97871.19
2023-12-11T11:54:46.416Z,97875.06
2023-12-11T11:57:26.905Z,97864.94
2023-12-11T11:59:58.797Z,97857.22
2023-12-11T12:02:30.520Z,97848.06
2023-12-11T12:05:12.858Z,97846.91
2023-12-11T12:07:47.911Z,97837.31
2023-12-11T12:10:20.630Z,97827.69
2023-12-11T12:12:59.012Z,97831.53
2023-12-11T12:15:31.112Z,97828.97
2023-12-11T12:18:08.316Z,97817.50
2023-12-11T12:20:43.200Z,97813.88
2023-12-11T12:23:17.682Z,97821.22
2023-12-11T12:25:54.335Z,97817.97
2023-12-11T12:28:42.130Z,97811.97
2023-12-11T12:31:14.125Z,97812.78
2023-12-11T12:33:47.815Z,97808.81
2023-12-11T12:36:20.364Z,97801.22
2023-12-11T12:38:52.373Z,97819.59
2023-12-11T12:41:24.205Z,97804.59
2023-12-11T12:44:00.075Z,97817.16
2023-12-11T12:46:40.974Z,97813.13
2023-12-11T12:49:15.364Z,97811.38
2023-12-11T12:51:54.698Z,97819.44
2023-12-11T12:54:26.612Z,97809.91
2023-12-11T12:57:00.159Z,97815.47
2023-12-11T12:59:34.092Z,97811.63
2023-12-11T13:02:15.810Z,97820.41
2023-12-11T13:04:54.653Z,97814.75
2023-12-11T13:07:28.406Z,97814.22
2023-12-11T13:10:15.226Z,97819.31
2023-12-11T13:12:49.900Z,97808.53
2023-12-11T13:15:21.823Z,97819.75
2023-12-11T13:17:54.845Z,97806.72
2023-12-11T13:20:26.784Z,97809.59
2023-12-11T13:22:58.966Z,97812.47
2023-12-11T13:25:30.819Z,97809.03
2023-12-11T13:28:03.220Z,97803.16
2023-12-11T13:30:35.079Z,97807.84
2023-12-11T13:33:06.984Z,97801.13
2023-12-11T13:35:38.827Z,97810.69
2023-12-11T13:38:10.858Z,97803.59
2023-12-11T13:40:43.172Z,97802.00
2023-12-11T13:43:15.252Z,97814.81
2023-12-11T13:45:47.131Z,97807.31
2023-12-11T13:48:22.016Z,97816.88
2023-12-11T13:50:55.646Z,97817.25
2023-12-11T13:53:28.384Z,97830.28
2023-12-11T13:56:01.336Z,97835.75
2023-12-11T13:58:33.650Z,97834.53
2023-12-11T14:01:06.030Z,97831.69
2023-12-11T14:03:37.948Z,97832.47
2023-12-11T14:06:09.804Z,97827.63
2023-12-11T14:08:46.651Z,97823.78
2023-12-11T14:11:18.524Z,97829.06
2023-12-11T14:13:50.270Z,97831.28
2023-12-11T14:16:22.372Z,97826.81
2023-12-11T14:18:54.376Z,97831.91
2023-12-11T14:21:26.227Z,97835.75
2023-12-11T14:23:58.052Z,97839.00
2023-12-11T14:26:33.094Z,97838.38
2023-12-11T14:29:06.908Z,97839.44
2023-12-11T14:31:38.837Z,97832.53
2023-12-11T14:34:11.024Z,97830.50
2023-12-11T14:36:43.227Z,97816.06
2023-12-11T14:39:17.826Z,97815.28
2023-12-11T14:41:49.690Z,97824.59
2023-12-11T14:44:21.518Z,97830.28
2023-12-11T14:46:53.431Z,97821.94
2023-12-11T14:49:25.405Z,97817.09
2023-12-11T14:51:58.196Z,97822.38
2023-12-11T14:54:30.102Z,97814.63
2023-12-11T14:57:01.901Z,97826.00
2023-12-11T14:59:36.276Z,97818.50
2023-12-11T15:02:08.197Z,97826.81
2023-12-11T15:04:40.141Z,97823.38
2023-12-11T15:07:14.803Z,97819.09
2023-12-11T15:09:48.038Z,97821.72
2023-12-11T15:12:20.158Z,97830.88
2023-12-11T15:14:52.360Z,97826.22
2023-12-11T15:17:24.129Z,97829.22
2023-12-11T15:19:57.264Z,97829.84
2023-12-11T15:22:29.278Z,97821.31
2023-12-11T15:25:01.155Z,97824.34
2023-12-11T15:27:33.470Z,97828.81
2023-12-11T15:30:09.479Z,97832.47
2023-12-11T15:32:48.412Z,97831.66
2023-12-11T15:35:20.715Z,97842.59
2023-12-11T15:37:52.841Z,97842.38
2023-12-11T15:40:27.421Z,97839.56
2023-12-11T15:43:03.176Z,97843.00
2023-12-11T15:45:35.024Z,97844.84
2023-12-11T15:48:10.179Z,97847.28
2023-12-11T15:50:55.382Z,97842.00
2023-12-11T15:53:30.037Z,97846.66
2023-12-11T15:56:01.884Z,97840.38
2023-12-11T15:58:33.695Z,97840.19
2023-12-11T16:01:08.031Z,97838.34
2023-12-11T16:03:40.423Z,97845.44
2023-12-11T16:06:12.412Z,97841.81
2023-12-11T16:08:44.251Z,97839.38
2023-12-11T16:11:16.447Z,97847.28
2023-12-11T16:13:48.233Z,97846.47
2023-12-11T16:16:22.717Z,97849.91
2023-12-11T16:18:55.018Z,97841.38
2023-12-11T16:21:27.560Z,97849.72
2023-12-11T16:24:01.020Z,97856.19
2023-12-11T16:26:32.858Z,97863.72
2023-12-11T16:29:07.479Z,97853.59
2023-12-11T16:31:40.039Z,97840.63
2023-12-11T16:34:11.933Z,97828.63
2023-12-11T16:36:49.532Z,97844.66
2023-12-11T16:39:21.593Z,97844.25
2023-12-11T16:41:53.448Z,97841.63
2023-12-11T16:44:25.305Z,97845.47
2023-12-11T16:46:57.083Z,97858.66
2023-12-11T16:49:28.990Z,97864.13
2023-12-11T16:52:03.017Z,97865.34
2023-12-11T16:54:34.776Z,97861.50
2023-12-11T16:57:06.881Z,97858.47
2023-12-11T16:59:39.921Z,97858.06
2023-12-11T17:02:11.955Z,97862.53
2023-12-11T17:04:50.798Z,97874.72
2023-12-11T17:07:25.723Z,97867.38
2023-12-11T17:10:04.347Z,97857.84
2023-12-11T17:12:36.476Z,97863.75
2023-12-11T17:15:09.311Z,97864.94
2023-12-11T17:17:44.048Z,97866.19
2023-12-11T17:20:15.799Z,97868.81
2023-12-11T17:22:47.606Z,97878.16
2023-12-11T17:25:19.465Z,97880.97
2023-12-11T17:27:51.636Z,97903.91
2023-12-11T17:30:23.801Z,97909.56
2023-12-11T17:32:55.784Z,97909.97
2023-12-11T17:35:27.668Z,97898.59
2023-12-11T17:37:59.922Z,97895.59
2023-12-11T17:40:34.789Z,97885.63
2023-12-11T17:43:09.536Z,97877.13
2023-12-11T17:45:42.662Z,97878.50
2023-12-11T17:48:14.708Z,97893.72
2023-12-11T17:50:46.505Z,97876.47
2023-12-11T17:53:18.398Z,97883.16
2023-12-11T17:55:53.785Z,97884.34
2023-12-11T17:58:25.677Z,97888.22
2023-12-11T18:00:57.631Z,97890.03
2023-12-11T18:03:29.415Z,97910.91
2023-12-11T18:06:04.387Z,97915.34
2023-12-11T18:08:36.458Z,97927.06
2023-12-11T18:11:08.294Z,97930.13
2023-12-11T18:13:41.096Z,97940.66
2023-12-11T18:16:13.281Z,97941.25
2023-12-11T18:18:47.289Z,97940.63
2023-12-11T18:21:20.323Z,97957.03
2023-12-11T18:23:55.445Z,97953.94
2023-12-11T18:26:27.237Z,97965.31
2023-12-11T18:29:01.872Z,97978.44
2023-12-11T18:31:40.137Z,97974.16
2023-12-11T18:34:12.133Z,97990.19
2023-12-11T18:36:47.068Z,97985.28
2023-12-11T18:39:18.831Z,97981.84
2023-12-11T18:41:50.641Z,97989.50
2023-12-11T18:44:22.377Z,97982.84
2023-12-11T18:46:56.486Z,97985.84
2023-12-11T18:49:30.002Z,97983.97
2023-12-11T18:52:02.030Z,97986.78
2023-12-11T18:54:37.962Z,97990.22
2023-12-11T18:57:10.419Z,97994.91
2023-12-11T18:59:42.264Z,97997.91
2023-12-11T19:02:14.784Z,98007.00
2023-12-11T19:04:46.861Z,98012.66
2023-12-11T19:07:18.743Z,98014.47
2023-12-11T19:09:52.918Z,98012.66
2023-12-11T19:12:24.820Z,98022.38
2023-12-11T19:14:56.902Z,98007.97
2023-12-11T19:17:29.443Z,98015.47
2023-12-11T19:20:01.585Z,98023.38
2023-12-11T19:22:33.455Z,98026.38
2023-12-11T19:25:05.776Z,98025.38
2023-12-11T19:27:42.758Z,98029.19
2023-12-11T19:30:14.672Z,98046.22
2023-12-11T19:33:14.825Z,98043.38
2023-12-11T19:35:46.673Z,98046.00
2023-12-11T19:38:19.536Z,98049.19
2023-12-11T19:40:51.349Z,98048.38
2023-12-11T19:43:24.981Z,98044.94
2023-12-11T19:45:57.410Z,98053.66
2023-12-11T19:48:30.077Z,98051.19
2023-12-11T19:51:01.878Z,98062.94
2023-12-11T19:53:33.673Z,98060.88
2023-12-11T19:56:08.119Z,98074.66
2023-12-11T19:58:39.914Z,98081.31
2023-12-11T20:01:12.054Z,98075.41
2023-12-11T20:03:44.245Z,98081.47
2023-12-11T20:06:26.406Z,98084.50
2023-12-11T20:08:58.745Z,98092.75
2023-12-11T20:11:30.919Z,98094.38
2023-12-11T20:14:02.734Z,98097.03
2023-12-11T20:16:34.908Z,98094.56
2023-12-11T20:19:07.674Z,98102.66
2023-12-11T20:21:42.582Z,98099.41
2023-12-11T20:24:18.521Z,98107.72
2023-12-11T20:26:51.151Z,98110.75
2023-12-11T20:29:23.096Z,98109.50
2023-12-11T20:31:55.362Z,98114.75
2023-12-11T20:34:30.177Z,98121.38
2023-12-11T20:37:02.041Z,98127.91
2023-12-11T20:39:33.938Z,98125.63
2023-12-11T20:42:05.958Z,98130.09
2023-12-11T20:44:37.841Z,98138.63
2023-12-11T20:47:09.924Z,98147.69
2023-12-11T20:49:41.808Z,98145.63
2023-12-11T20:52:14.016Z,98150.88
2023-12-11T20:54:45.923Z,98153.34
2023-12-11T20:57:17.744Z,98158.84
2023-12-11T20:59:49.578Z,98164.94
2023-12-11T21:02:21.315Z,98173.25
2023-12-11T21:04:55.387Z,98179.34
2023-12-11T21:07:27.301Z,98178.78
2023-12-11T21:10:00.066Z,98189.13
2023-12-11T21:12:36.001Z,98175.63
2023-12-11T21:15:08.026Z,98181.97
2023-12-11T21:17:42.524Z,98178.06
2023-12-11T21:20:14.722Z,98189.56
2023-12-11T21:22:46.581Z,98193.03
2023-12-11T21:25:21.285Z,98196.84
2023-12-11T21:27:52.997Z,98197.41
2023-12-11T21:30:24.778Z,98198.59
2023-12-11T21:32:57.740Z,98209.94
2023-12-11T21:35:29.571Z,98212.56
2023-12-11T21:38:04.583Z,98214.19
2023-12-11T21:40:39.027Z,98214.38
2023-12-11T21:43:11.336Z,98210.75
2023-12-11T21:45:43.113Z,98216.19
2023-12-11T21:48:14.975Z,98212.13
2023-12-11T21:50:47.362Z,98219.72
2023-12-11T21:53:19.140Z,98227.56
2023-12-11T21:55:50.955Z,98230.19
2023-12-11T21:58:23.054Z,98236.78
2023-12-11T22:00:55.086Z,98246.03
2023-12-11T22:03:27.108Z,98242.75
2023-12-11T22:05:59.126Z,98258.75
2023-12-11T22:08:34.082Z,98259.09
2023-12-11T22:11:06.267Z,98259.47
2023-12-11T22:13:38.090Z,98263.69
2023-12-11T22:16:09.877Z,98277.41
2023-12-11T22:18:41.851Z,98270.50
2023-12-11T22:21:33.922Z,98269.06
2023-12-11T22:24:06.339Z,98280.91
2023-12-11T22:26:40.763Z,98293.28
2023-12-11T22:29:13.600Z,98291.63
2023-12-11T22:31:48.190Z,98294.25
2023-12-11T22:34:20.054Z,98305.78
2023-12-11T22:36:53.688Z,98302.50
2023-12-11T22:39:25.497Z,98300.69
2023-12-11T22:41:59.281Z,98295.44
2023-12-11T22:44:34.203Z,98305.13
2023-12-11T22:47:06.082Z,98304.97
2023-12-11T22:49:38.704Z,98306.59
2023-12-11T22:52:10.708Z,98303.78
2023-12-11T22:54:42.678Z,98303.59
2023-12-11T22:57:14.415Z,98297.34
2023-12-11T22:59:46.249Z,98304.25
2023-12-11T23:02:18.825Z,98312.13
2023-12-11T23:04:50.783Z,98311.47
2023-12-11T23:07:22.677Z,98313.50
2023-12-11T23:09:54.487Z,98313.00
2023-12-11T23:12:26.385Z,98318.09
2023-12-11T23:14:58.485Z,98318.09
2023-12-11T23:17:30.945Z,98322.53
2023-12-11T23:20:02.928Z,98318.44
2023-12-11T23:22:34.825Z,98316.63
2023-12-11T23:25:07.186Z,98316.47
2023-12-11T23:27:39.581Z,98326.97
2023-12-11T23:30:11.526Z,98334.88
2023-12-11T23:35:40.000Z,98339.78
2023-12-11T23:38:11.828Z,98329.56
2023-12-11T23:40:45.893Z,98333.63
2023-12-11T23:43:17.704Z,98336.91
2023-12-11T23:45:49.652Z,98329.47
2023-12-11T23:48:21.460Z,98343.72
2023-12-11T23:50:53.735Z,98335.47
2023-12-11T23:53:25.550Z,98341.22
2023-12-11T23:55:57.877Z,98340.88
2023-12-11T23:58:34.026Z,98348.59
